Time;durP1;ratioP1;P1;durP2;ratioP2;P2;SDS_P1;SDS_P2;PMS_P1;PMS_P2;Temp;Humidity;BMP_temperature;BMP_pressure;BME280_temperature;BME280_humidity;BME280_pressure;Samples;Min_cycle;Max_cycle;Signal;HPM_P1;HPM_P2
2022/08/08 00:01:40;;;;;;;;;;;;;;;25.23;57.80;100814.59;7407185;19;1523;-65
2022/08/08 00:04:10;;;;;;;;;;;;;;;25.23;57.81;100830.84;7409433;19;1523;-65
2022/08/08 00:06:44;;;;;;;;;;;;;;;25.18;57.76;100801.56;7408833;19;1531;-65
2022/08/08 00:09:17;;;;;;;;;;;;;;;25.17;57.90;100810.72;7406512;19;1853;-53
2022/08/08 00:11:46;;;;;;;;;;;;;;;25.20;57.82;100821.19;7407121;19;1673;-64
2022/08/08 00:14:20;;;;;;;;;;;;;;;25.22;57.40;100819.19;7407057;19;1480;-53
2022/08/08 00:16:56;;;;;;;;;;;;;;;25.19;57.90;100819.53;7406382;19;1584;-66
2022/08/08 00:19:28;;;;;;;;;;;;;;;25.10;57.62;100821.41;7407185;19;1542;-54
2022/08/08 00:21:58;;;;;;;;;;;;;;;25.12;57.99;100826.63;7407630;19;1624;-53
2022/08/08 00:24:30;;;;;;;;;;;;;;;25.16;57.64;100830.69;7407681;19;1522;-65
2022/08/08 00:27:00;;;;;;;;;;;;;;;25.14;57.71;100827.31;7407397;19;1612;-53
2022/08/08 00:29:31;;;;;;;;;;;;;;;25.20;57.67;100837.44;7405299;19;1885;-52
2022/08/08 00:32:05;;;;;;;;;;;;;;;25.10;57.67;100831.38;7406569;19;1574;-52
2022/08/08 00:37:44;;;;;;;;;;;;;;;25.01;58.18;100838.69;7401274;19;3052;-52
2022/08/08 00:40:30;;;;;;;;;;;;;;;25.07;57.80;100829.00;7406930;19;1538;-52
2022/08/08 00:43:15;;;;;;;;;;;;;;;25.11;57.41;100835.75;7406450;19;1630;-52
2022/08/08 00:45:58;;;;;;;;;;;;;;;25.06;57.50;100827.34;7405626;19;1763;-64
2022/08/08 00:48:46;;;;;;;;;;;;;;;25.04;57.63;100842.91;7405741;19;1849;-53
2022/08/08 00:51:29;;;;;;;;;;;;;;;25.01;58.03;100836.81;7407288;19;1538;-53
2022/08/08 00:54:13;;;;;;;;;;;;;;;25.02;57.83;100845.78;7406955;19;1629;-53
2022/08/08 00:57:05;;;;;;;;;;;;;;;24.97;57.87;100846.31;7405064;19;1507;-52
2022/08/08 00:59:53;;;;;;;;;;;;;;;24.98;57.83;100834.44;7406404;19;1519;-65
2022/08/08 01:02:38;;;;;;;;;;;;;;;24.99;57.95;100841.56;7404965;19;1504;-66
2022/08/08 01:05:18;;;;;;;;;;;;;;;24.99;57.93;100836.16;7405903;19;1566;-53
2022/08/08 01:08:08;;;;;;;;;;;;;;;25.01;57.73;100844.94;7406862;19;1850;-65
2022/08/08 01:10:58;;;;;;;;;;;;;;;25.06;57.38;100847.13;7405672;19;1538;-52
2022/08/08 01:13:54;;;;;;;;;;;;;;;25.07;57.37;100853.34;7405074;19;1640;-65
2022/08/08 01:16:38;;;;;;;;;;;;;;;25.08;57.10;100855.91;7405681;19;1520;-52
2022/08/08 01:19:32;;;;;;;;;;;;;;;25.11;57.16;100865.53;7406189;19;1567;-62
2022/08/08 01:22:16;;;;;;;;;;;;;;;24.90;57.64;100858.81;7405009;19;1538;-65
2022/08/08 01:25:02;;;;;;;;;;;;;;;24.93;57.46;100865.72;7405620;19;1508;-66
2022/08/08 01:27:46;;;;;;;;;;;;;;;24.91;57.29;100876.75;7404135;19;1619;-53
2022/08/08 01:30:29;;;;;;;;;;;;;;;24.88;57.17;100868.13;7402187;19;2518;-53
2022/08/08 01:33:12;;;;;;;;;;;;;;;24.96;57.15;100863.53;7403968;19;1699;-61
2022/08/08 01:35:53;;;;;;;;;;;;;;;24.88;57.61;100866.25;7405139;19;1521;-65
2022/08/08 01:38:39;;;;;;;;;;;;;;;24.94;56.96;100880.97;7405188;19;1601;-65
2022/08/08 01:41:13;;;;;;;;;;;;;;;24.86;57.03;100873.72;7403074;19;1783;-61
2022/08/08 01:43:58;;;;;;;;;;;;;;;24.96;57.07;100876.22;7405096;19;1617;-52
2022/08/08 01:46:40;;;;;;;;;;;;;;;24.96;56.87;100868.94;7404368;19;1604;-61
2022/08/08 01:49:11;;;;;;;;;;;;;;;25.04;56.79;100878.91;7403984;19;1859;-52
2022/08/08 01:51:50;;;;;;;;;;;;;;;25.07;56.96;100888.53;7404426;19;1605;-65
2022/08/08 01:54:24;;;;;;;;;;;;;;;25.06;56.87;100890.41;7406146;19;1605;-53
2022/08/08 01:57:02;;;;;;;;;;;;;;;25.05;56.66;100877.91;7404428;19;1633;-65
2022/08/08 01:59:39;;;;;;;;;;;;;;;25.04;56.75;100886.19;7405072;19;1530;-52
2022/08/08 02:02:11;;;;;;;;;;;;;;;24.98;56.94;100898.53;7380599;19;1864;-37
2022/08/08 02:04:44;;;;;;;;;;;;;;;24.91;56.92;100898.41;7388914;19;1081;-37
2022/08/08 02:07:20;;;;;;;;;;;;;;;25.01;56.62;100887.38;7393072;19;1680;-36
2022/08/08 02:10:00;;;;;;;;;;;;;;;25.07;56.53;100884.00;7402282;19;1864;-36
2022/08/08 02:12:40;;;;;;;;;;;;;;;25.20;56.39;100886.13;7405274;19;1676;-36
2022/08/08 02:15:13;;;;;;;;;;;;;;;25.19;56.32;100885.31;7407627;19;1524;-37
2022/08/08 02:17:50;;;;;;;;;;;;;;;25.18;56.70;100901.72;7405107;19;1563;-36
2022/08/08 02:20:40;;;;;;;;;;;;;;;25.19;56.42;100900.72;7407242;19;1577;-36
2022/08/08 02:23:19;;;;;;;;;;;;;;;25.14;56.88;100900.38;7408317;19;1418;-36
2022/08/08 02:25:52;;;;;;;;;;;;;;;25.18;56.63;100899.00;7406426;19;1495;-37
2022/08/08 02:28:26;;;;;;;;;;;;;;;25.13;56.42;100917.63;7406518;19;1863;-37
2022/08/08 02:31:03;;;;;;;;;;;;;;;25.10;56.67;100905.28;7408236;19;1412;-36
2022/08/08 02:33:41;;;;;;;;;;;;;;;25.10;56.66;100917.97;7407187;19;1687;-36
2022/08/08 02:36:25;;;;;;;;;;;;;;;25.10;56.90;100924.22;7407191;19;1961;-37
2022/08/08 02:39:09;;;;;;;;;;;;;;;25.01;56.57;100918.00;7402776;19;1762;-36
2022/08/08 02:41:52;;;;;;;;;;;;;;;25.06;56.76;100922.03;7403157;19;1569;-36
2022/08/08 02:44:40;;;;;;;;;;;;;;;25.01;56.39;100926.09;7406676;19;1922;-36
2022/08/08 02:47:32;;;;;;;;;;;;;;;24.86;56.88;100917.00;7404228;19;1571;-36
2022/08/08 02:50:19;;;;;;;;;;;;;;;24.88;56.66;100924.94;7404690;19;1855;-36
2022/08/08 02:53:10;;;;;;;;;;;;;;;24.84;56.70;100927.13;7403239;19;1499;-36
2022/08/08 02:56:00;;;;;;;;;;;;;;;24.92;56.37;100926.28;7404411;19;1854;-36
2022/08/08 02:58:51;;;;;;;;;;;;;;;24.92;56.69;100932.53;7405394;19;1671;-36
2022/08/08 03:04:48;;;;;;;;;;;;;;;24.86;56.68;100932.38;7401837;19;2625;-36
2022/08/08 03:07:39;;;;;;;;;;;;;;;24.87;56.19;100932.22;7405798;19;1767;-36
2022/08/08 03:10:28;;;;;;;;;;;;;;;24.86;56.36;100944.03;7405195;19;1894;-36
2022/08/08 03:13:14;;;;;;;;;;;;;;;24.92;56.03;100943.34;7406721;19;1830;-36
2022/08/08 03:15:58;;;;;;;;;;;;;;;24.98;55.77;100936.41;7404584;19;2441;-36
2022/08/08 03:18:30;;;;;;;;;;;;;;;24.99;55.68;100944.38;7405657;19;1884;-36
2022/08/08 03:23:41;;;;;;;;;;;;;;;24.95;55.61;100937.63;7402154;19;2295;-36
2022/08/08 03:26:09;;;;;;;;;;;;;;;24.84;55.76;100943.38;7405206;19;1678;-37
2022/08/08 03:28:42;;;;;;;;;;;;;;;24.85;55.79;100934.25;7406061;19;1860;-36
2022/08/08 03:33:51;;;;;;;;;;;;;;;24.92;55.86;100943.34;7408139;19;1457;-37
2022/08/08 03:36:20;;;;;;;;;;;;;;;24.89;55.88;100945.53;7406155;19;1680;-35
2022/08/08 03:38:52;;;;;;;;;;;;;;;24.94;55.85;100952.16;7405172;19;1960;-36
2022/08/08 03:41:20;;;;;;;;;;;;;;;24.94;55.88;100954.00;7404446;19;1556;-35
2022/08/08 03:43:56;;;;;;;;;;;;;;;24.95;55.78;100953.00;7405614;19;2061;-36
2022/08/08 03:46:24;;;;;;;;;;;;;;;24.93;55.85;100942.34;7403980;19;2114;-37
2022/08/08 03:48:56;;;;;;;;;;;;;;;24.99;55.93;100957.91;7404521;19;1863;-36
2022/08/08 03:51:25;;;;;;;;;;;;;;;24.99;55.54;100957.91;7403814;19;1703;-37
2022/08/08 03:53:56;;;;;;;;;;;;;;;25.00;55.68;100966.84;7406310;19;1034;-36
2022/08/08 03:56:25;;;;;;;;;;;;;;;25.00;55.94;100969.56;7403625;19;1756;-36
2022/08/08 03:58:54;;;;;;;;;;;;;;;24.96;55.70;100966.34;7404327;19;1843;-37
2022/08/08 04:01:22;;;;;;;;;;;;;;;24.97;55.81;100957.22;7403017;19;1815;-36
2022/08/08 04:03:51;;;;;;;;;;;;;;;25.05;55.63;100963.63;7404641;19;1853;-36
2022/08/08 04:06:19;;;;;;;;;;;;;;;25.08;55.45;100966.84;7403815;19;2063;-36
2022/08/08 04:08:47;;;;;;;;;;;;;;;25.05;55.54;100964.50;7402846;19;1853;-36
2022/08/08 04:11:18;;;;;;;;;;;;;;;25.12;55.46;100967.34;7403680;19;1739;-36
2022/08/08 04:13:47;;;;;;;;;;;;;;;25.12;55.73;100964.66;7403899;19;2269;-36
2022/08/08 04:16:15;;;;;;;;;;;;;;;25.10;55.83;100974.78;7403880;19;1847;-38
2022/08/08 04:18:43;;;;;;;;;;;;;;;25.12;55.96;100965.47;7404682;19;1106;-39
2022/08/08 04:21:11;;;;;;;;;;;;;;;25.13;55.73;100974.47;7404658;19;1816;-36
2022/08/08 04:23:40;;;;;;;;;;;;;;;25.15;55.74;100988.66;7402032;19;1853;-36
2022/08/08 04:26:08;;;;;;;;;;;;;;;25.19;55.64;100993.56;7403758;19;1814;-35
2022/08/08 04:28:39;;;;;;;;;;;;;;;25.13;55.77;100982.59;7402609;19;1862;-36
2022/08/08 04:31:08;;;;;;;;;;;;;;;25.12;55.65;100992.53;7397786;19;1956;-36
2022/08/08 04:33:36;;;;;;;;;;;;;;;25.05;56.30;100996.09;7403573;19;1616;-35
2022/08/08 04:36:05;;;;;;;;;;;;;;;25.09;55.88;100992.03;7403435;19;1627;-36
2022/08/08 04:38:33;;;;;;;;;;;;;;;25.08;55.82;100979.53;7401484;19;1945;-36
2022/08/08 04:41:01;;;;;;;;;;;;;;;25.17;55.67;101008.28;7402478;19;1565;-36
2022/08/08 04:43:30;;;;;;;;;;;;;;;25.19;55.77;100987.31;7400012;19;1639;-36
2022/08/08 04:46:01;;;;;;;;;;;;;;;25.23;55.65;100988.69;7400576;19;1661;-36
2022/08/08 04:48:29;;;;;;;;;;;;;;;25.20;55.58;100991.69;7401545;19;1591;-36
2022/08/08 04:50:57;;;;;;;;;;;;;;;25.25;55.54;100991.19;7399284;19;1859;-37
2022/08/08 04:53:25;;;;;;;;;;;;;;;25.35;55.74;101008.13;7401488;19;1922;-36
2022/08/08 04:55:54;;;;;;;;;;;;;;;25.27;55.96;100997.28;7402332;19;1621;-36
2022/08/08 04:58:22;;;;;;;;;;;;;;;25.27;55.74;101000.84;7401203;19;1654;-36
2022/08/08 05:00:53;;;;;;;;;;;;;;;25.42;55.88;100997.44;7402225;19;1928;-36
2022/08/08 05:03:24;;;;;;;;;;;;;;;25.00;56.78;101002.88;7400404;19;1981;-35
2022/08/08 05:05:52;;;;;;;;;;;;;;;23.94;57.66;101008.06;7400508;19;1813;-35
2022/08/08 05:08:20;;;;;;;;;;;;;;;23.21;57.44;100999.31;7401784;19;1535;-35
2022/08/08 05:10:49;;;;;;;;;;;;;;;22.98;56.10;101004.34;7402054;19;1852;-35
2022/08/08 05:13:17;;;;;;;;;;;;;;;22.80;55.10;100993.59;7399921;19;1812;-35
2022/08/08 05:15:45;;;;;;;;;;;;;;;23.32;54.54;101014.41;7402581;19;1936;-36
2022/08/08 05:18:13;;;;;;;;;;;;;;;23.43;55.69;101008.75;7401269;19;2000;-36
2022/08/08 05:20:44;;;;;;;;;;;;;;;23.49;57.00;101019.91;7401366;19;1590;-36
2022/08/08 05:23:13;;;;;;;;;;;;;;;23.46;58.36;101001.31;7402350;19;1714;-36
2022/08/08 05:25:41;;;;;;;;;;;;;;;23.45;59.23;101008.59;7400598;19;1953;-35
2022/08/08 05:28:09;;;;;;;;;;;;;;;23.46;59.82;101017.53;7399840;19;1547;-35
2022/08/08 05:30:39;;;;;;;;;;;;;;;23.48;60.48;101024.47;7399395;19;1944;-36
2022/08/08 05:33:07;;;;;;;;;;;;;;;23.54;60.64;101031.94;7400966;19;1641;-35
2022/08/08 05:35:36;;;;;;;;;;;;;;;23.53;60.92;101035.63;7398571;19;1837;-35
2022/08/08 05:38:09;;;;;;;;;;;;;;;23.54;61.33;101039.19;7399762;19;1572;-35
2022/08/08 05:40:38;;;;;;;;;;;;;;;23.59;61.81;101026.06;7400172;19;1548;-36
2022/08/08 05:43:07;;;;;;;;;;;;;;;23.58;61.90;101054.06;7396583;19;1502;-36
2022/08/08 05:45:36;;;;;;;;;;;;;;;23.50;62.51;101033.25;7399579;19;1415;-36
2022/08/08 05:48:06;;;;;;;;;;;;;;;23.59;62.46;101031.44;7400403;19;1700;-35
2022/08/08 05:50:34;;;;;;;;;;;;;;;23.51;61.73;101044.91;7400515;19;1851;-38
2022/08/08 05:53:03;;;;;;;;;;;;;;;23.27;61.69;101043.72;7400125;19;1627;-37
2022/08/08 05:55:35;;;;;;;;;;;;;;;23.25;61.78;101053.81;7400080;19;1596;-37
2022/08/08 05:58:04;;;;;;;;;;;;;;;23.35;61.60;101059.13;7400362;19;1456;-36
2022/08/08 06:00:34;;;;;;;;;;;;;;;23.26;61.30;101047.44;7399295;19;1594;-36
2022/08/08 06:03:13;;;;;;;;;;;;;;;23.18;61.23;101039.28;7398480;19;1635;-38
2022/08/08 06:05:47;;;;;;;;;;;;;;;23.18;60.99;101060.88;7399614;19;1736;-36
2022/08/08 06:08:16;;;;;;;;;;;;;;;23.13;60.60;101057.78;7398575;19;1622;-37
2022/08/08 06:10:47;;;;;;;;;;;;;;;23.17;60.41;101059.16;7398989;19;1864;-36
2022/08/08 06:13:15;;;;;;;;;;;;;;;23.11;60.58;101059.78;7398065;19;1920;-36
2022/08/08 06:15:44;;;;;;;;;;;;;;;23.10;60.51;101052.69;7400565;19;1722;-37
2022/08/08 06:18:13;;;;;;;;;;;;;;;23.10;60.47;101052.69;7404841;19;1925;-38
2022/08/08 06:20:41;;;;;;;;;;;;;;;23.13;60.30;101057.78;7401995;19;1523;-36
2022/08/08 06:23:10;;;;;;;;;;;;;;;23.16;60.08;101069.09;7400597;19;1656;-37
2022/08/08 06:25:41;;;;;;;;;;;;;;;23.06;60.10;101062.09;7399539;19;1749;-36
2022/08/08 06:28:14;;;;;;;;;;;;;;;23.08;60.13;101054.69;7397672;19;1577;-37
2022/08/08 06:30:44;;;;;;;;;;;;;;;23.10;59.99;101055.38;7399054;19;1861;-36
2022/08/08 06:33:13;;;;;;;;;;;;;;;23.14;59.81;101063.03;7399744;19;1759;-37
2022/08/08 06:35:45;;;;;;;;;;;;;;;23.14;59.84;101056.75;7399450;19;1551;-36
2022/08/08 06:38:16;;;;;;;;;;;;;;;23.21;59.53;101055.97;7399239;19;1490;-36
2022/08/08 06:40:45;;;;;;;;;;;;;;;23.18;59.51;101044.69;7400488;19;1605;-36
2022/08/08 06:43:16;;;;;;;;;;;;;;;23.09;59.61;101059.94;7405185;19;1469;-37
2022/08/08 06:45:45;;;;;;;;;;;;;;;23.14;59.60;101041.44;7399888;19;1628;-36
2022/08/08 06:48:13;;;;;;;;;;;;;;;23.06;59.92;101052.16;7398847;19;2018;-37
2022/08/08 06:50:42;;;;;;;;;;;;;;;23.13;59.78;101055.06;7398182;19;1869;-36
2022/08/08 06:53:10;;;;;;;;;;;;;;;23.07;59.99;101050.31;7399056;19;1549;-36
2022/08/08 06:55:39;;;;;;;;;;;;;;;23.06;59.74;101049.47;7404303;19;1657;-36
2022/08/08 06:58:08;;;;;;;;;;;;;;;23.24;59.29;101049.44;7405437;19;1863;-37
2022/08/08 07:00:40;;;;;;;;;;;;;;;23.56;58.11;101066.88;7404609;19;1986;-36
2022/08/08 07:03:10;;;;;;;;;;;;;;;23.23;59.13;101050.44;7404041;19;1811;-36
2022/08/08 07:05:40;;;;;;;;;;;;;;;23.10;59.60;101034.66;7404592;19;1833;-36
2022/08/08 07:08:10;;;;;;;;;;;;;;;23.06;59.50;101048.59;7404977;19;1533;-38
2022/08/08 07:10:40;;;;;;;;;;;;;;;23.14;59.50;101054.06;7405279;19;1861;-37
2022/08/08 07:13:09;;;;;;;;;;;;;;;23.19;59.57;101041.78;7405949;19;2035;-37
2022/08/08 07:15:45;;;;;;;;;;;;;;;23.02;60.06;101056.19;7405771;19;1820;-36
2022/08/08 07:18:18;;;;;;;;;;;;;;;23.07;60.03;101047.59;7405744;19;1834;-37
2022/08/08 07:20:50;;;;;;;;;;;;;;;23.13;59.97;101041.59;7406326;19;1832;-36
2022/08/08 07:23:21;;;;;;;;;;;;;;;23.00;60.05;101025.78;7405442;19;1594;-36
2022/08/08 07:25:51;;;;;;;;;;;;;;;23.06;60.15;101037.81;7406304;19;1842;-36
2022/08/08 07:28:22;;;;;;;;;;;;;;;22.99;60.35;101024.06;7405154;19;1853;-37
2022/08/08 07:30:54;;;;;;;;;;;;;;;23.06;60.23;101043.19;7405414;19;1855;-36
2022/08/08 07:33:24;;;;;;;;;;;;;;;22.99;60.08;101027.59;7404595;19;1763;-37
2022/08/08 07:35:54;;;;;;;;;;;;;;;23.39;58.54;101044.31;7402261;19;1573;-39
2022/08/08 07:38:22;;;;;;;;;;;;;;;23.23;59.41;101042.34;7403844;19;1540;-37
2022/08/08 07:40:51;;;;;;;;;;;;;;;23.06;59.80;101037.81;7404681;19;1812;-37
2022/08/08 07:43:21;;;;;;;;;;;;;;;23.07;60.06;101039.50;7405223;19;1651;-36
2022/08/08 07:45:49;;;;;;;;;;;;;;;23.09;59.54;101045.59;7403961;19;1644;-37
2022/08/08 07:48:20;;;;;;;;;;;;;;;23.21;59.51;101036.25;7404720;19;1523;-38
2022/08/08 07:50:50;;;;;;;;;;;;;;;23.50;58.34;101040.53;7401011;19;1879;-37
2022/08/08 07:53:23;;;;;;;;;;;;;;;23.14;59.50;101027.94;7405023;19;1590;-36
2022/08/08 07:55:52;;;;;;;;;;;;;;;23.01;59.91;101028.31;7403989;19;1364;-36
2022/08/08 07:58:22;;;;;;;;;;;;;;;22.99;60.21;101024.91;7400977;19;1472;-36
2022/08/08 08:00:52;;;;;;;;;;;;;;;23.17;59.67;101038.41;7404415;19;1513;-36
2022/08/08 08:03:31;;;;;;;;;;;;;;;23.46;58.63;101037.28;7401286;19;2068;-37
2022/08/08 08:06:00;;;;;;;;;;;;;;;23.17;59.39;101033.00;7403702;19;1619;-37
2022/08/08 08:08:32;;;;;;;;;;;;;;;23.03;59.92;101034.41;7404228;19;1840;-36
2022/08/08 08:11:01;;;;;;;;;;;;;;;23.08;60.03;101038.50;7401692;19;1856;-37
2022/08/08 08:13:35;;;;;;;;;;;;;;;23.13;60.09;101037.03;7403449;19;1789;-37
2022/08/08 08:16:05;;;;;;;;;;;;;;;23.38;58.72;101037.22;7404337;19;1750;-36
2022/08/08 08:18:41;;;;;;;;;;;;;;;23.21;59.28;101039.78;7404000;19;1276;-37
2022/08/08 08:21:09;;;;;;;;;;;;;;;23.06;60.20;101035.09;7403258;19;1979;-36
2022/08/08 08:23:38;;;;;;;;;;;;;;;23.04;60.09;101032.59;7403067;19;1589;-36
2022/08/08 08:26:06;;;;;;;;;;;;;;;23.06;60.31;101032.41;7400241;19;1670;-37
2022/08/08 08:28:35;;;;;;;;;;;;;;;23.00;60.36;101031.19;7403474;19;1503;-37
2022/08/08 08:31:04;;;;;;;;;;;;;;;23.00;60.27;101026.63;7403630;19;1856;-37
2022/08/08 08:33:33;;;;;;;;;;;;;;;23.01;60.61;101027.47;7405301;19;1809;-37
2022/08/08 08:36:06;;;;;;;;;;;;;;;23.00;60.59;101026.63;7404334;19;1892;-37
2022/08/08 08:38:34;;;;;;;;;;;;;;;23.37;59.42;101017.47;7402052;19;1911;-37
2022/08/08 08:41:05;;;;;;;;;;;;;;;23.24;59.78;101006.28;7400668;19;1962;-36
2022/08/08 08:43:35;;;;;;;;;;;;;;;23.08;60.10;101006.13;7401107;19;1833;-37
2022/08/08 08:46:10;;;;;;;;;;;;;;;23.09;61.23;101019.47;7402590;19;1843;-37
2022/08/08 08:48:40;;;;;;;;;;;;;;;23.07;62.31;101016.06;7403157;19;1673;-37
2022/08/08 08:51:23;;;;;;;;;;;;;;;23.17;62.33;101010.59;7400252;19;2062;-37
2022/08/08 08:53:57;;;;;;;;;;;;;;;23.26;61.97;100998.88;7400948;19;1642;-37
2022/08/08 08:59:15;;;;;;;;;;;;;;;23.74;61.83;101007.41;7400982;19;2487;-37
2022/08/08 09:01:51;;;;;;;;;;;;;;;23.90;62.12;101003.97;7401224;19;1947;-36
2022/08/08 09:04:27;;;;;;;;;;;;;;;23.94;61.85;100998.09;7401021;19;1757;-37
2022/08/08 09:07:02;;;;;;;;;;;;;;;24.07;62.27;100992.22;7400050;19;1670;-37
2022/08/08 09:09:31;;;;;;;;;;;;;;;24.24;62.36;100981.47;7400052;19;1646;-36
2022/08/08 09:12:03;;;;;;;;;;;;;;;24.18;63.21;100975.69;7399506;19;1843;-36
2022/08/08 09:14:52;;;;;;;;;;;;;;;24.19;63.59;100990.91;7401865;19;1783;-37
2022/08/08 09:17:23;;;;;;;;;;;;;;;24.25;63.76;100988.56;7397596;19;1808;-36
2022/08/08 09:19:57;;;;;;;;;;;;;;;24.24;64.17;100973.38;7399992;19;1796;-37
2022/08/08 09:22:36;;;;;;;;;;;;;;;24.29;64.02;100979.09;7399920;19;1857;-36
2022/08/08 09:25:06;;;;;;;;;;;;;;;24.31;64.31;100982.47;7401270;19;1977;-35
2022/08/08 09:27:36;;;;;;;;;;;;;;;24.34;65.01;100982.16;7400431;19;1626;-36
2022/08/08 09:30:07;;;;;;;;;;;;;;;24.22;64.44;100971.66;7402218;19;1738;-36
2022/08/08 09:32:48;;;;;;;;;;;;;;;24.11;63.40;100971.94;7398996;19;2013;-36
2022/08/08 09:35:24;;;;;;;;;;;;;;;24.07;63.76;100962.50;7401057;19;1841;-36
2022/08/08 09:37:58;;;;;;;;;;;;;;;24.02;65.15;100967.56;7400473;19;1613;-36
2022/08/08 09:40:30;;;;;;;;;;;;;;;24.18;64.88;100945.97;7400158;19;1566;-36
2022/08/08 09:43:08;;;;;;;;;;;;;;;24.17;65.10;100965.91;7401282;19;1789;-37
2022/08/08 09:45:50;;;;;;;;;;;;;;;24.25;65.16;100956.13;7398573;19;1826;-36
2022/08/08 09:48:19;;;;;;;;;;;;;;;24.27;65.09;100933.31;7401776;19;1927;-36
2022/08/08 09:50:48;;;;;;;;;;;;;;;24.33;64.87;100945.31;7400068;19;1941;-37
2022/08/08 09:53:20;;;;;;;;;;;;;;;24.38;65.00;100945.69;7400678;19;1697;-36
2022/08/08 09:55:49;;;;;;;;;;;;;;;24.40;65.24;100941.78;7399489;19;2048;-36
2022/08/08 09:58:18;;;;;;;;;;;;;;;24.37;64.95;100936.75;7400014;19;1728;-36
2022/08/08 10:00:48;;;;;;;;;;;;;;;24.42;64.90;100947.03;7400591;19;1907;-38
2022/08/08 10:03:17;;;;;;;;;;;;;;;24.39;64.95;100932.00;7393612;19;2029;-34
2022/08/08 10:05:46;;;;;;;;;;;;;;;24.11;65.42;100927.88;7396564;19;1672;-34
2022/08/08 10:08:14;;;;;;;;;;;;;;;23.78;65.62;100938.59;7399449;19;1717;-34
2022/08/08 10:10:45;;;;;;;;;;;;;;;23.55;65.41;100927.50;7399792;19;1327;-34
2022/08/08 10:13:20;;;;;;;;;;;;;;;23.50;64.92;100935.25;7397544;19;1825;-34
2022/08/08 10:19:07;;;;;;;;;;;;;;;23.34;64.36;100922.53;7396294;19;1648;-33
2022/08/08 10:21:42;;;;;;;;;;;;;;;23.29;64.58;100922.97;7398989;19;1317;-34
2022/08/08 10:24:33;;;;;;;;;;;;;;;23.32;64.35;100922.66;7400624;19;2052;-34
2022/08/08 10:27:08;;;;;;;;;;;;;;;23.28;64.03;100907.81;7400293;19;1769;-34
2022/08/08 10:29:59;;;;;;;;;;;;;;;23.22;63.83;100903.06;7403589;19;1843;-34
2022/08/08 10:32:36;;;;;;;;;;;;;;;23.15;63.84;100894.75;7405507;19;1853;-34
2022/08/08 10:35:07;;;;;;;;;;;;;;;23.19;63.34;100876.38;7406582;19;1916;-34
2022/08/08 10:37:42;;;;;;;;;;;;;;;23.22;63.41;100894.97;7407279;19;1584;-34
2022/08/08 10:40:18;;;;;;;;;;;;;;;23.11;63.50;100896.06;7406692;19;1685;-34
2022/08/08 10:42:52;;;;;;;;;;;;;;;23.13;63.01;100901.31;7408066;19;2063;-34
2022/08/08 10:45:25;;;;;;;;;;;;;;;23.00;63.48;100877.44;7407696;19;1929;-34
2022/08/08 10:48:00;;;;;;;;;;;;;;;23.13;62.94;100880.56;7407094;19;1558;-33
2022/08/08 10:50:36;;;;;;;;;;;;;;;23.16;62.80;100887.53;7406324;19;1631;-34
2022/08/08 10:53:08;;;;;;;;;;;;;;;23.15;62.74;100891.19;7404181;19;1855;-33
2022/08/08 10:55:41;;;;;;;;;;;;;;;23.09;62.52;100872.97;7407340;19;1874;-33
2022/08/08 10:58:24;;;;;;;;;;;;;;;23.05;62.72;100855.41;7404883;19;1898;-34
2022/08/08 11:01:04;;;;;;;;;;;;;;;23.02;62.37;100857.41;7408173;19;1020;-33
2022/08/08 11:03:45;;;;;;;;;;;;;;;23.02;62.28;100862.81;7404182;19;1638;-34
2022/08/08 11:06:15;;;;;;;;;;;;;;;23.05;62.34;100861.66;7406312;19;1937;-35
2022/08/08 11:08:44;;;;;;;;;;;;;;;23.07;62.39;100866.88;7405676;19;1583;-33
2022/08/08 11:11:14;;;;;;;;;;;;;;;22.99;62.31;100863.09;7404787;19;1922;-34
2022/08/08 11:13:43;;;;;;;;;;;;;;;23.20;61.80;100867.31;7406226;19;1761;-34
2022/08/08 11:19:07;;;;;;;;;;;;;;;23.17;61.30;100862.22;7402752;19;1986;-34
2022/08/08 11:21:40;;;;;;;;;;;;;;;23.13;61.33;100842.81;7405258;19;1937;-34
2022/08/08 11:24:12;;;;;;;;;;;;;;;23.10;61.50;100843.13;7398731;19;1633;-34
2022/08/08 11:26:45;;;;;;;;;;;;;;;23.17;61.10;100849.56;7402294;19;1831;-34
2022/08/08 11:29:22;;;;;;;;;;;;;;;23.16;61.18;100853.28;7400407;19;1680;-34
2022/08/08 11:31:59;;;;;;;;;;;;;;;23.16;61.05;100836.25;7402534;19;1852;-34
2022/08/08 11:34:34;;;;;;;;;;;;;;;23.10;61.30;100842.28;7404650;19;1878;-34
2022/08/08 11:37:04;;;;;;;;;;;;;;;23.12;61.10;100826.78;7405003;19;1665;-34
2022/08/08 11:39:32;;;;;;;;;;;;;;;23.07;60.90;100842.63;7402273;19;1734;-34
2022/08/08 11:42:02;;;;;;;;;;;;;;;23.09;60.93;100829.81;7404709;19;1828;-34
2022/08/08 11:44:30;;;;;;;;;;;;;;;23.11;60.61;100823.22;7405485;19;1846;-33
2022/08/08 11:47:01;;;;;;;;;;;;;;;23.02;60.60;100827.75;7403570;19;1829;-33
2022/08/08 11:49:31;;;;;;;;;;;;;;;23.04;60.15;100822.22;7402906;19;1574;-34
2022/08/08 11:51:59;;;;;;;;;;;;;;;23.06;60.17;100808.53;7403559;19;1867;-33
2022/08/08 11:54:34;;;;;;;;;;;;;;;23.33;61.28;100805.63;7402182;19;1455;-34
2022/08/08 11:57:15;;;;;;;;;;;;;;;23.70;62.08;100812.50;7404915;19;1861;-34
2022/08/08 11:59:47;;;;;;;;;;;;;;;23.85;62.70;100814.56;7404583;19;1683;-34
2022/08/08 12:02:18;;;;;;;;;;;;;;;23.96;63.22;100816.94;7402101;19;1671;-33
2022/08/08 12:04:47;;;;;;;;;;;;;;;24.02;63.80;100802.78;7403300;19;1433;-34
2022/08/08 12:07:16;;;;;;;;;;;;;;;24.05;63.96;100799.72;7403890;19;1620;-34
2022/08/08 12:09:45;;;;;;;;;;;;;;;24.18;63.90;100797.38;7403765;19;2025;-34
2022/08/08 12:12:23;;;;;;;;;;;;;;;24.14;64.22;100795.19;7402773;19;1851;-34
2022/08/08 12:15:01;;;;;;;;;;;;;;;23.94;62.11;100787.41;7404109;19;1691;-34
2022/08/08 12:17:39;;;;;;;;;;;;;;;23.82;61.78;100805.78;7403800;19;1963;-34
2022/08/08 12:20:08;;;;;;;;;;;;;;;23.79;61.48;100784.50;7402007;19;1858;-34
2022/08/08 12:22:48;;;;;;;;;;;;;;;23.78;62.13;100793.63;7402593;19;1977;-34
2022/08/08 12:25:23;;;;;;;;;;;;;;;23.53;63.42;100778.34;7401822;19;1792;-33
2022/08/08 12:27:51;;;;;;;;;;;;;;;23.26;63.37;100784.84;7402682;19;1818;-34
2022/08/08 12:30:30;;;;;;;;;;;;;;;23.13;63.13;100775.38;7403214;19;1837;-34
2022/08/08 12:33:01;;;;;;;;;;;;;;;23.01;63.31;100776.63;7401717;19;1878;-33
2022/08/08 12:35:39;;;;;;;;;;;;;;;23.05;63.05;100785.28;7402930;19;1835;-33
2022/08/08 12:38:10;;;;;;;;;;;;;;;23.00;62.66;100783.06;7399721;19;1691;-33
2022/08/08 12:40:43;;;;;;;;;;;;;;;22.93;62.52;100780.13;7399873;19;1512;-34
2022/08/08 12:43:13;;;;;;;;;;;;;;;22.97;61.95;100768.00;7401103;19;1601;-34
2022/08/08 12:45:42;;;;;;;;;;;;;;;23.05;61.67;100761.84;7403290;19;1292;-34
2022/08/08 12:48:21;;;;;;;;;;;;;;;23.02;61.41;100773.81;7404364;19;2041;-33
2022/08/08 12:50:50;;;;;;;;;;;;;;;23.05;61.32;100763.72;7402889;19;1673;-33
2022/08/08 12:53:22;;;;;;;;;;;;;;;22.99;61.34;100776.78;7400114;19;1868;-33
2022/08/08 12:55:55;;;;;;;;;;;;;;;23.05;60.80;100771.81;7401670;19;1645;-33
2022/08/08 12:58:23;;;;;;;;;;;;;;;23.08;60.73;100769.63;7402285;19;1633;-34
2022/08/08 13:00:58;;;;;;;;;;;;;;;23.07;60.76;100757.13;7402412;19;1720;-33
2022/08/08 13:03:35;;;;;;;;;;;;;;;23.00;60.75;100756.91;7399065;19;1649;-33
2022/08/08 13:06:08;;;;;;;;;;;;;;;22.99;60.75;100757.91;7397771;19;1791;-33
2022/08/08 13:08:41;;;;;;;;;;;;;;;23.04;60.20;100749.38;7400681;19;1508;-33
2022/08/08 13:11:18;;;;;;;;;;;;;;;22.97;60.41;100737.50;7399987;19;1611;-34
2022/08/08 13:13:51;;;;;;;;;;;;;;;23.04;60.24;100738.59;7400536;19;1851;-33
2022/08/08 13:16:20;;;;;;;;;;;;;;;22.98;60.14;100742.75;7403008;19;1645;-33
2022/08/08 13:18:51;;;;;;;;;;;;;;;22.96;60.35;100739.38;7400927;19;1934;-35
2022/08/08 13:21:19;;;;;;;;;;;;;;;22.97;59.94;100735.66;7399281;19;1880;-33
2022/08/08 13:23:48;;;;;;;;;;;;;;;23.07;59.71;100740.94;7400073;19;1782;-33
2022/08/08 13:26:17;;;;;;;;;;;;;;;23.96;58.05;100735.91;7397660;19;1506;-34
2022/08/08 13:28:45;;;;;;;;;;;;;;;24.39;57.30;100718.47;7398551;19;1871;-34
2022/08/08 13:31:14;;;;;;;;;;;;;;;24.64;56.71;100720.31;7396931;19;1545;-34
2022/08/08 13:33:43;;;;;;;;;;;;;;;24.75;56.67;100728.00;7398960;19;1867;-34
2022/08/08 13:36:14;;;;;;;;;;;;;;;24.89;56.48;100734.56;7398635;19;1844;-34
2022/08/08 13:38:43;;;;;;;;;;;;;;;24.89;56.61;100711.06;7399271;19;2030;-34
2022/08/08 13:41:11;;;;;;;;;;;;;;;24.93;56.51;100707.00;7399653;19;1710;-34